Time;durP1;ratioP1;P1;durP2;ratioP2;P2;SDS_P1;SDS_P2;PMS_P1;PMS_P2;Temp;Humidity;BMP_temperature;BMP_pressure;BME280_temperature;BME280_humidity;BME280_pressure;Samples;Min_cycle;Max_cycle;Signal;HPM_P1;HPM_P2
2023/01/27 00:02:56;;;;;;;23.92;3.35;;;13.30;92.50;;;;;;10438852;28;20045;-27
2023/01/27 00:07:58;;;;;;;11.10;2.70;;;13.30;91.80;;;;;;10439049;28;20041;-24
2023/01/27 00:18:22;;;;;;;16.17;2.38;;;13.70;93.30;;;;;;10446032;28;20045;-25
2023/01/27 00:28:47;;;;;;;11.18;1.98;;;14.20;92.60;;;;;;10440598;28;20049;-26
2023/01/27 00:33:53;;;;;;;5.28;1.75;;;13.70;93.60;;;;;;10442697;28;20057;-25
2023/01/27 00:38:54;;;;;;;5.72;1.85;;;13.90;91.70;;;;;;10440581;28;20052;-25
2023/01/27 00:43:56;;;;;;;6.23;1.77;;;14.50;91.30;;;;;;10433154;28;20042;-25
2023/01/27 00:49:00;;;;;;;4.60;1.58;;;14.10;92.30;;;;;;10441127;28;20064;-24
2023/01/27 00:54:02;;;;;;;5.55;1.65;;;14.60;88.60;;;;;;10448755;28;20115;-25
2023/01/27 00:59:05;;;;;;;10.00;2.00;;;14.40;91.90;;;;;;10441045;28;20496;-26
2023/01/27 01:04:08;;;;;;;5.38;1.40;;;14.70;88.70;;;;;;10443772;28;20122;-24
2023/01/27 01:09:10;;;;;;;6.72;1.60;;;14.60;87.20;;;;;;10451596;28;20146;-25
2023/01/27 01:14:11;;;;;;;4.23;2.47;;;15.00;85.70;;;;;;10441102;28;20092;-25
2023/01/27 01:19:15;;;;;;;2.90;1.40;;;15.10;88.40;;;;;;10437748;28;20143;-25
2023/01/27 01:24:17;;;;;;;4.63;1.33;;;14.80;89.70;;;;;;10447994;28;20114;-24
2023/01/27 01:29:19;;;;;;;5.67;1.53;;;15.60;83.10;;;;;;10438421;28;20056;-25
2023/01/27 01:34:22;;;;;;;6.57;1.20;;;15.40;83.20;;;;;;10433130;28;20091;-25
2023/01/27 01:39:24;;;;;;;4.18;1.38;;;15.10;83.00;;;;;;10441249;28;20098;-25
2023/01/27 01:44:28;;;;;;;5.37;1.33;;;14.20;91.40;;;;;;10444767;28;20056;-24
2023/01/27 01:49:34;;;;;;;7.07;1.48;;;15.00;85.30;;;;;;10431132;28;20582;-25
2023/01/27 01:54:40;;;;;;;2.03;1.13;;;14.80;87.50;;;;;;10434082;28;20387;-27
2023/01/27 01:59:46;;;;;;;3.92;1.27;;;15.00;84.40;;;;;;10430748;28;20056;-26
2023/01/27 02:04:57;;;;;;;6.47;1.73;;;14.70;87.80;;;;;;10431409;28;20043;-24
2023/01/27 02:10:00;;;;;;;2.92;1.23;;;15.30;84.10;;;;;;10429975;28;20539;-25
2023/01/27 02:15:03;;;;;;;5.07;1.10;;;15.40;83.10;;;;;;10433003;28;20049;-26
2023/01/27 02:20:14;;;;;;;7.22;1.15;;;14.70;76.60;;;;;;10432611;28;20051;-25
2023/01/27 02:25:24;;;;;;;3.17;0.95;;;15.60;80.90;;;;;;10443955;28;20089;-26
2023/01/27 02:30:28;;;;;;;4.72;1.40;;;15.20;80.10;;;;;;10434988;28;20344;-25
2023/01/27 02:35:35;;;;;;;4.47;1.25;;;14.60;81.60;;;;;;10447561;28;20049;-25
2023/01/27 02:40:37;;;;;;;2.33;1.05;;;15.00;85.20;;;;;;10448382;28;20136;-25
2023/01/27 02:45:41;;;;;;;2.42;1.10;;;15.40;83.30;;;;;;10433362;28;20151;-25
2023/01/27 02:50:42;;;;;;;3.40;1.00;;;15.50;80.10;;;;;;10434120;28;20045;-24
2023/01/27 02:55:44;;;;;;;1.47;0.90;;;14.90;86.20;;;;;;10438699;28;20159;-25
2023/01/27 03:00:47;;;;;;;4.20;1.20;;;15.80;79.60;;;;;;10441333;28;20079;-25
2023/01/27 03:05:50;;;;;;;3.75;0.90;;;16.00;77.00;;;;;;10434184;28;20145;-31
2023/01/27 03:10:53;;;;;;;2.35;0.90;;;15.90;77.80;;;;;;10439649;28;20044;-26
2023/01/27 03:21:18;;;;;;;3.42;1.10;;;16.00;76.00;;;;;;10433198;28;20053;-26
2023/01/27 03:26:20;;;;;;;2.15;1.08;;;15.70;73.80;;;;;;10433876;28;20541;-25
2023/01/27 03:31:23;;;;;;;2.50;1.10;;;15.50;80.50;;;;;;10446856;28;20079;-30
2023/01/27 03:47:07;;;;;;;3.20;0.88;;;15.70;74.40;;;;;;10443307;28;20477;-25
2023/01/27 03:52:08;;;;;;;3.28;1.20;;;15.70;78.70;;;;;;10442074;28;20541;-25
2023/01/27 03:57:10;;;;;;;3.17;1.37;;;15.20;77.00;;;;;;10437944;28;20095;-25
2023/01/27 04:07:34;;;;;;;4.53;1.20;;;15.80;77.80;;;;;;10444795;28;20466;-24
2023/01/27 04:12:36;;;;;;;3.72;1.13;;;15.30;78.00;;;;;;10445389;28;20050;-25
2023/01/27 04:17:40;;;;;;;0.98;0.70;;;15.50;79.40;;;;;;10448755;28;20379;-24
2023/01/27 04:22:42;;;;;;;1.30;1.00;;;15.70;77.30;;;;;;10450771;28;20053;-26
2023/01/27 04:27:44;;;;;;;1.43;0.90;;;16.00;75.70;;;;;;10440745;28;20068;-24
2023/01/27 04:32:47;;;;;;;1.73;0.70;;;15.80;76.70;;;;;;10432730;28;20478;-25
2023/01/27 04:37:49;;;;;;;1.88;1.20;;;15.60;77.80;;;;;;10449409;28;20490;-25
2023/01/27 04:42:53;;;;;;;1.00;0.70;;;15.70;77.40;;;;;;10450814;28;20477;-24
2023/01/27 04:47:57;;;;;;;2.00;1.20;;;15.70;77.50;;;;;;10441107;28;20118;-25
2023/01/27 04:52:58;;;;;;;2.55;0.73;;;15.90;75.10;;;;;;10432266;28;20139;-26
2023/01/27 04:58:00;;;;;;;2.20;1.13;;;15.80;76.10;;;;;;10445706;28;20048;-24
2023/01/27 05:03:04;;;;;;;2.33;1.30;;;15.60;75.50;;;;;;10441072;28;20041;-25
2023/01/27 05:08:08;;;;;;;1.13;0.63;;;16.00;74.20;;;;;;10444085;28;20045;-25
2023/01/27 05:13:10;;;;;;;2.85;0.88;;;15.90;74.90;;;;;;10445122;28;20541;-24
2023/01/27 05:18:13;;;;;;;2.27;0.87;;;15.80;75.80;;;;;;10446129;28;20106;-24
2023/01/27 05:28:37;;;;;;;2.42;1.23;;;15.90;75.00;;;;;;10428365;28;20420;-24
2023/01/27 05:33:42;;;;;;;1.90;0.80;;;15.60;74.50;;;;;;10441503;28;20800;-25
2023/01/27 05:38:44;;;;;;;2.88;1.75;;;16.00;73.30;;;;;;10436624;28;20049;-25
2023/01/27 05:43:47;;;;;;;0.80;0.68;;;15.90;72.00;;;;;;10447287;28;20518;-25
2023/01/27 05:48:52;;;;;;;0.98;0.60;;;16.20;73.20;;;;;;10440043;28;20064;-25
2023/01/27 05:53:54;;;;;;;1.63;0.60;;;16.40;71.50;;;;;;10446234;28;20069;-24
2023/01/27 05:58:58;;;;;;;0.98;0.50;;;16.50;70.90;;;;;;10434777;28;20049;-25
2023/01/27 06:04:01;;;;;;;1.05;0.55;;;16.60;70.70;;;;;;10432474;28;20041;-25
2023/01/27 06:09:03;;;;;;;1.40;0.70;;;16.60;70.30;;;;;;10443524;28;20037;-25
2023/01/27 06:14:05;;;;;;;0.80;0.40;;;16.40;70.80;;;;;;10425197;28;20136;-25
2023/01/27 06:19:10;;;;;;;1.20;0.80;;;16.60;70.80;;;;;;10424639;28;20056;-25
2023/01/27 06:24:12;;;;;;;1.25;0.75;;;16.50;70.60;;;;;;10424951;28;20045;-25
2023/01/27 06:29:14;;;;;;;1.87;0.60;;;16.20;72.50;;;;;;10430181;28;20048;-24
2023/01/27 06:34:17;;;;;;;1.23;0.93;;;16.60;71.50;;;;;;10420363;28;20587;-27
2023/01/27 06:39:19;;;;;;;1.30;0.60;;;16.40;67.90;;;;;;10422609;28;20092;-26
2023/01/27 06:44:21;;;;;;;1.43;0.57;;;16.60;71.60;;;;;;10422852;28;20136;-25
2023/01/27 06:49:24;;;;;;;1.45;0.50;;;16.40;71.10;;;;;;10433931;28;20490;-27
2023/01/27 06:54:26;;;;;;;1.83;0.65;;;16.40;74.00;;;;;;10432659;28;20049;-25
2023/01/27 06:59:28;;;;;;;0.97;0.50;;;16.70;71.00;;;;;;10439361;28;20154;-27
2023/01/27 07:14:58;;;;;;;0.88;0.40;;;16.60;69.50;;;;;;10545261;27;20127;-26
2023/01/27 07:20:00;;;;;;;0.85;0.50;;;16.80;70.60;;;;;;10531955;28;20451;-27
2023/01/27 07:25:02;;;;;;;0.40;0.40;;;16.60;68.90;;;;;;10505919;28;20071;-25
2023/01/27 07:30:07;;;;;;;2.50;0.47;;;16.90;69.90;;;;;;10519236;28;20072;-25
2023/01/27 07:35:09;;;;;;;0.90;0.28;;;16.90;70.00;;;;;;10504923;28;20829;-26
2023/01/27 07:40:12;;;;;;;0.93;0.60;;;17.00;69.30;;;;;;10504377;28;20147;-26
2023/01/27 07:45:16;;;;;;;1.23;0.60;;;17.00;69.80;;;;;;10490990;28;20057;-26
2023/01/27 07:50:18;;;;;;;1.00;0.57;;;16.80;67.80;;;;;;10491133;28;20037;-25
2023/01/27 07:55:19;;;;;;;2.17;0.70;;;16.90;70.20;;;;;;10487421;28;20127;-24
2023/01/27 08:00:24;;;;;;;2.00;0.60;;;16.40;70.70;;;;;;10496311;28;20182;-25
2023/01/27 08:05:26;;;;;;;0.50;0.40;;;16.80;71.40;;;;;;10498082;28;20051;-26
2023/01/27 08:10:29;;;;;;;0.95;0.50;;;16.80;71.40;;;;;;10500335;28;20053;-27
2023/01/27 08:15:32;;;;;;;;;;;16.80;71.90;;;;;;10512816;28;20052;-26
2023/01/27 08:20:34;;;;;;;1.15;0.63;;;16.70;71.60;;;;;;10504732;28;19919;-29
2023/01/27 08:25:35;;;;;;;2.50;0.80;;;16.70;71.60;;;;;;10471260;28;20135;-25
2023/01/27 08:30:39;;;;;;;1.00;0.37;;;16.60;72.20;;;;;;10482499;28;20052;-27
2023/01/27 08:35:43;;;;;;;1.08;0.47;;;16.90;71.20;;;;;;10482207;28;20036;-26
2023/01/27 08:40:47;;;;;;;1.98;0.88;;;16.70;72.30;;;;;;10499456;28;20044;-25
2023/01/27 08:45:52;;;;;;;11.20;2.83;;;16.50;73.10;;;;;;10489089;28;20056;-24
2023/01/27 08:50:54;;;;;;;6.72;3.10;;;16.30;75.00;;;;;;10478928;28;20056;-25
2023/01/27 08:55:58;;;;;;;2.28;1.35;;;16.30;75.30;;;;;;10478485;28;20400;-26
2023/01/27 09:01:03;;;;;;;4.40;2.42;;;16.10;76.70;;;;;;10481641;28;20046;-25
2023/01/27 09:06:07;;;;;;;6.45;3.78;;;16.30;75.20;;;;;;10481289;28;20120;-26
2023/01/27 09:11:11;;;;;;;6.97;2.55;;;16.00;76.10;;;;;;10494415;28;20486;-26
2023/01/27 09:16:14;;;;;;;4.47;2.00;;;16.20;74.90;;;;;;10495212;28;20072;-25
2023/01/27 09:21:16;;;;;;;2.47;1.27;;;16.20;74.90;;;;;;10509149;28;20127;-25
2023/01/27 09:26:18;;;;;;;2.53;1.07;;;16.30;73.70;;;;;;10485555;28;20079;-24
2023/01/27 09:31:22;;;;;;;2.17;0.80;;;16.20;74.20;;;;;;10482725;28;20062;-24
2023/01/27 09:36:24;;;;;;;6.20;0.90;;;15.90;75.60;;;;;;10488037;28;20056;-25
2023/01/27 09:41:54;;;;;;;7.13;1.23;;;16.20;74.30;;;;;;10484973;28;20068;-27
2023/01/27 09:47:18;;;;;;;3.97;1.00;;;15.90;75.90;;;;;;10487299;28;20468;-24
2023/01/27 09:52:49;;;;;;;4.25;0.80;;;16.30;73.50;;;;;;10489643;28;20044;-24
2023/01/27 09:57:59;;;;;;;2.63;0.52;;;16.10;73.30;;;;;;10475375;28;20136;-25
2023/01/27 10:03:19;;;;;;;1.75;0.40;;;16.80;69.10;;;;;;10491717;28;20110;-25
2023/01/27 10:08:38;;;;;;;1.70;0.60;;;16.60;70.00;;;;;;10479571;28;20048;-25
2023/01/27 10:13:52;;;;;;;3.20;0.60;;;16.40;70.50;;;;;;10484186;28;20060;-25
2023/01/27 10:19:10;;;;;;;1.38;0.50;;;16.30;71.20;;;;;;10487886;28;20072;-23
2023/01/27 10:24:23;;;;;;;3.92;0.80;;;16.50;69.80;;;;;;10493306;28;20072;-26
2023/01/27 10:29:26;;;;;;;2.92;1.48;;;16.20;72.10;;;;;;10488327;28;20136;-26
2023/01/27 10:34:35;;;;;;;8.20;3.00;;;15.70;75.00;;;;;;10486264;28;20521;-26
2023/01/27 10:39:46;;;;;;;6.47;2.28;;;16.30;72.60;;;;;;10481682;28;20041;-25
2023/01/27 10:45:08;;;;;;;6.95;2.78;;;16.30;72.50;;;;;;10474147;28;20388;-28
2023/01/27 10:50:16;;;;;;;8.45;3.55;;;16.50;71.60;;;;;;10487185;28;20102;-23
2023/01/27 10:55:24;;;;;;;5.38;2.22;;;16.50;71.60;;;;;;10491656;28;20087;-25
2023/01/27 11:00:33;;;;;;;4.70;2.65;;;16.30;70.90;;;;;;10469668;28;20135;-26
2023/01/27 11:05:41;;;;;;;4.82;2.05;;;16.40;72.70;;;;;;10489827;28;20166;-24
2023/01/27 11:16:05;;;;;;;6.25;2.35;;;16.50;70.20;;;;;;10474194;28;20057;-25
2023/01/27 11:21:12;;;;;;;7.50;3.60;;;16.80;68.90;;;;;;10487623;28;20078;-25
2023/01/27 11:26:24;;;;;;;4.10;1.77;;;16.00;71.50;;;;;;10478805;28;20137;-24
2023/01/27 11:31:37;;;;;;;3.93;2.50;;;16.70;68.60;;;;;;10483206;28;20053;-26
2023/01/27 11:36:40;;;;;;;2.92;1.38;;;16.70;69.30;;;;;;10478281;28;20056;-24
2023/01/27 11:41:48;;;;;;;5.32;1.50;;;16.30;71.30;;;;;;10487938;28;20134;-25
2023/01/27 11:46:50;;;;;;;2.65;1.30;;;16.30;71.70;;;;;;10470915;28;20044;-26
2023/01/27 11:52:04;;;;;;;5.80;2.63;;;16.70;69.40;;;;;;10486601;28;20050;-25
2023/01/27 11:57:17;;;;;;;6.47;1.88;;;16.50;69.60;;;;;;10485036;28;20049;-25
2023/01/27 12:02:29;;;;;;;9.95;1.95;;;16.10;71.80;;;;;;10472448;28;20044;-23
2023/01/27 12:07:41;;;;;;;10.77;1.83;;;16.30;72.00;;;;;;10485511;28;20052;-25
2023/01/27 12:12:44;;;;;;;4.07;2.03;;;16.10;72.40;;;;;;10483720;28;20109;-25
2023/01/27 12:17:49;;;;;;;4.72;2.08;;;16.30;70.70;;;;;;10482018;28;20064;-24
2023/01/27 12:22:54;;;;;;;5.20;2.47;;;16.40;71.50;;;;;;10474905;28;20082;-24
2023/01/27 12:27:59;;;;;;;7.72;2.10;;;16.30;71.70;;;;;;10475565;28;20075;-25
2023/01/27 12:33:11;;;;;;;9.80;1.48;;;16.00;73.70;;;;;;10493514;28;20052;-26
2023/01/27 12:38:18;;;;;;;7.35;3.15;;;16.50;70.90;;;;;;10470570;28;20106;-25
2023/01/27 12:43:20;;;;;;;2.25;1.40;;;16.20;72.20;;;;;;10473971;28;20153;-25
2023/01/27 12:48:22;;;;;;;2.97;1.30;;;16.30;72.10;;;;;;10482173;28;20050;-24
2023/01/27 12:53:26;;;;;;;7.80;1.80;;;16.20;72.00;;;;;;10484234;28;20147;-25
2023/01/27 12:58:39;;;;;;;4.35;1.40;;;16.10;68.00;;;;;;10493147;28;20048;-25
2023/01/27 13:03:41;;;;;;;;;;;16.40;70.30;;;;;;10485389;28;20486;-24
2023/01/27 13:08:46;;;;;;;1.42;0.60;;;16.80;67.50;;;;;;10476433;28;19930;-25
2023/01/27 13:13:50;;;;;;;1.58;0.75;;;16.80;67.90;;;;;;10480259;28;20052;-25
2023/01/27 13:18:54;;;;;;;3.15;0.75;;;16.90;68.10;;;;;;10485716;28;20037;-25
2023/01/27 13:23:59;;;;;;;2.72;0.90;;;16.80;68.20;;;;;;10485652;28;20141;-24
2023/01/27 13:29:10;;;;;;;7.75;1.83;;;16.60;70.30;;;;;;10484419;28;20048;-27
2023/01/27 13:34:21;;;;;;;4.05;1.67;;;16.40;66.60;;;;;;10481206;28;20577;-27
2023/01/27 13:39:43;;;;;;;5.45;1.50;;;16.40;71.70;;;;;;10493907;28;20130;-24
2023/01/27 13:44:49;;;;;;;4.60;1.10;;;16.20;72.50;;;;;;10499496;28;20093;-25
2023/01/27 13:49:56;;;;;;;6.90;0.75;;;15.80;75.00;;;;;;10485642;28;20045;-25
2023/01/27 13:55:00;;;;;;;6.45;1.23;;;16.30;72.90;;;;;;10479631;28;20092;-26
2023/01/27 14:00:10;;;;;;;6.32;1.17;;;16.00;76.50;;;;;;10471112;28;20044;-26
2023/01/27 14:05:29;;;;;;;6.30;1.02;;;15.80;79.30;;;;;;10474969;28;20508;-25
2023/01/27 14:10:37;;;;;;;6.65;1.75;;;15.80;79.10;;;;;;10490934;28;20121;-26
2023/01/27 14:15:45;;;;;;;3.40;0.60;;;15.80;79.40;;;;;;10478565;28;20084;-24
2023/01/27 14:21:02;;;;;;;7.80;0.70;;;15.90;78.30;;;;;;10488438;28;20052;-25
2023/01/27 14:26:19;;;;;;;4.28;0.73;;;15.90;77.50;;;;;;10487379;28;20123;-27
2023/01/27 14:31:25;;;;;;;3.58;1.10;;;16.20;74.60;;;;;;10482894;28;20044;-26
2023/01/27 14:36:31;;;;;;;2.28;1.20;;;16.30;72.30;;;;;;10500244;28;20057;-24
2023/01/27 14:41:43;;;;;;;3.20;1.25;;;16.40;72.20;;;;;;10503827;28;20095;-27
2023/01/27 14:47:00;;;;;;;2.22;1.00;;;16.60;69.40;;;;;;10483521;28;20640;-27
2023/01/27 14:52:10;;;;;;;2.03;0.90;;;16.70;69.60;;;;;;10475620;28;20151;-25
2023/01/27 14:57:24;;;;;;;2.05;0.90;;;16.40;70.70;;;;;;10467741;28;20102;-27
2023/01/27 15:02:40;;;;;;;3.50;1.02;;;17.00;68.50;;;;;;10461682;28;20048;-25
2023/01/27 15:07:49;;;;;;;1.98;0.90;;;17.10;67.90;;;;;;10464023;28;20047;-26
2023/01/27 15:13:27;;;;;;;2.10;0.68;;;17.00;67.70;;;;;;10473333;28;20423;-26
2023/01/27 15:18:51;;;;;;;1.95;0.57;;;17.00;64.60;;;;;;10482919;28;20465;-28
2023/01/27 15:24:24;;;;;;;4.20;0.95;;;17.20;67.40;;;;;;10467138;28;20044;-27
2023/01/27 15:29:29;;;;;;;3.60;1.38;;;17.20;67.10;;;;;;10464541;28;20044;-28
2023/01/27 15:34:32;;;;;;;1.88;0.90;;;17.20;66.90;;;;;;10489372;28;20057;-26
2023/01/27 15:39:53;;;;;;;2.03;0.77;;;17.30;66.70;;;;;;10495032;28;20072;-26
2023/01/27 15:45:00;;;;;;;2.08;0.85;;;17.30;66.60;;;;;;10491797;28;20145;-26
2023/01/27 15:50:11;;;;;;;2.13;0.77;;;17.30;66.60;;;;;;10494463;28;20087;-25
2023/01/27 15:55:25;;;;;;;3.15;0.85;;;17.40;66.50;;;;;;10483757;28;20048;-26
2023/01/27 16:00:29;;;;;;;3.75;0.70;;;17.40;66.50;;;;;;10485540;28;20049;-26
2023/01/27 16:05:41;;;;;;;2.97;0.82;;;17.50;66.10;;;;;;10475583;28;20036;-26
2023/01/27 16:10:43;;;;;;;1.80;0.60;;;17.30;66.60;;;;;;10476911;28;20135;-24
2023/01/27 16:15:45;;;;;;;;;;;17.40;66.20;;;;;;10498009;28;20045;-24
2023/01/27 16:20:54;;;;;;;2.72;0.80;;;17.30;66.30;;;;;;10489662;28;20022;-24
2023/01/27 16:26:15;;;;;;;2.33;1.20;;;17.50;65.90;;;;;;10483280;28;20098;-26
2023/01/27 16:31:20;;;;;;;2.60;1.05;;;17.50;65.70;;;;;;10488704;28;20076;-24
2023/01/27 16:36:26;;;;;;;2.88;1.13;;;17.40;66.10;;;;;;10489991;28;20497;-25
2023/01/27 16:41:34;;;;;;;1.75;0.93;;;17.40;66.60;;;;;;10497989;28;20524;-25
2023/01/27 16:46:39;;;;;;;2.35;0.98;;;17.30;66.80;;;;;;10475035;28;20910;-24
2023/01/27 16:51:43;;;;;;;1.95;0.70;;;17.20;67.10;;;;;;10479997;28;20047;-28
2023/01/27 16:56:49;;;;;;;0.85;0.50;;;17.40;66.50;;;;;;10487616;28;20140;-26
2023/01/27 17:01:54;;;;;;;1.85;0.82;;;17.40;66.60;;;;;;10473243;28;20135;-25
2023/01/27 17:07:07;;;;;;;2.53;0.80;;;17.50;66.20;;;;;;10483568;28;20506;-23
2023/01/27 17:12:28;;;;;;;1.95;0.73;;;17.40;66.30;;;;;;10486570;28;20083;-25
2023/01/27 17:17:40;;;;;;;1.13;0.65;;;17.40;66.20;;;;;;10487055;28;20040;-27
2023/01/27 17:22:43;;;;;;;2.73;1.10;;;17.40;66.40;;;;;;10484343;28;20047;-25
2023/01/27 17:27:46;;;;;;;2.08;1.00;;;16.50;70.60;;;;;;10490504;28;20385;-26
2023/01/27 17:32:51;;;;;;;3.70;0.73;;;16.60;71.50;;;;;;10489422;28;20053;-25
2023/01/27 17:38:07;;;;;;;2.10;0.70;;;17.30;67.90;;;;;;10480386;28;20076;-25
2023/01/27 17:43:30;;;;;;;2.17;1.00;;;17.40;67.00;;;;;;10481236;28;20037;-25
2023/01/27 17:48:33;;;;;;;4.03;0.80;;;17.40;66.70;;;;;;10480570;28;20412;-26
2023/01/27 17:53:40;;;;;;;1.63;0.80;;;17.40;66.70;;;;;;10476550;28;20436;-25
2023/01/27 17:58:45;;;;;;;2.13;1.00;;;17.20;67.50;;;;;;10477711;28;20139;-26
2023/01/27 18:03:49;;;;;;;2.33;1.00;;;17.30;66.80;;;;;;10478473;28;20398;-26
2023/01/27 18:08:54;;;;;;;1.00;0.85;;;17.30;67.00;;;;;;10485439;28;20596;-27
2023/01/27 18:14:06;;;;;;;2.88;1.75;;;17.30;66.90;;;;;;10475420;28;20166;-27
2023/01/27 18:19:19;;;;;;;2.63;1.10;;;17.20;67.30;;;;;;10471259;28;20059;-26
2023/01/27 18:24:23;;;;;;;1.20;0.82;;;17.40;67.10;;;;;;10491396;28;20462;-26
2023/01/27 18:29:29;;;;;;;2.78;0.60;;;17.80;66.10;;;;;;10481355;28;20040;-25
2023/01/27 18:34:33;;;;;;;1.48;0.50;;;17.90;67.20;;;;;;10482985;28;20148;-25
2023/01/27 18:39:39;;;;;;;3.53;1.00;;;17.90;68.00;;;;;;10472646;28;20052;-26
2023/01/27 18:44:41;;;;;;;1.23;0.75;;;18.00;68.30;;;;;;10488215;28;20056;-24
2023/01/27 18:49:42;;;;;;;1.55;0.98;;;17.10;71.50;;;;;;10469616;28;20052;-26
2023/01/27 18:54:46;;;;;;;2.83;1.75;;;16.00;78.60;;;;;;10468501;28;20044;-27
2023/01/27 18:59:48;;;;;;;7.28;2.03;;;16.20;79.10;;;;;;10478130;28;20076;-26
2023/01/27 19:04:50;;;;;;;4.87;2.40;;;16.20;79.00;;;;;;10473888;28;20397;-25
2023/01/27 19:09:53;;;;;;;5.57;2.25;;;15.50;78.30;;;;;;10477625;28;20143;-25
2023/01/27 19:14:55;;;;;;;5.00;2.60;;;15.60;82.40;;;;;;10403784;28;20140;-25
2023/01/27 19:19:57;;;;;;;5.47;3.10;;;14.90;82.70;;;;;;10392340;28;20076;-25
2023/01/27 19:25:00;;;;;;;5.67;2.70;;;15.20;86.10;;;;;;10400517;28;20460;-25
2023/01/27 19:30:20;;;;;;;4.40;2.63;;;14.60;86.50;;;;;;10393679;28;20065;-27
2023/01/27 19:35:23;;;;;;;4.15;2.80;;;14.90;87.70;;;;;;10384872;28;20810;-24
2023/01/27 19:40:29;;;;;;;5.55;3.28;;;15.10;85.90;;;;;;10380701;28;20050;-26
2023/01/27 19:45:31;;;;;;;9.40;2.72;;;15.70;81.60;;;;;;10394223;28;20045;-26
2023/01/27 19:50:32;;;;;;;6.67;2.73;;;15.70;80.40;;;;;;10382016;28;20188;-26
2023/01/27 19:55:36;;;;;;;9.23;2.67;;;15.70;75.20;;;;;;10389168;28;20049;-25
2023/01/27 20:00:38;;;;;;;6.40;3.00;;;16.00;78.90;;;;;;10402826;28;20061;-25
2023/01/27 20:05:40;;;;;;;5.70;3.03;;;16.00;79.20;;;;;;10392422;28;20128;-26
2023/01/27 20:10:44;;;;;;;4.03;2.40;;;16.00;78.70;;;;;;10400188;28;20053;-26
2023/01/27 20:15:46;;;;;;;5.38;2.63;;;16.20;78.10;;;;;;10476597;28;20103;-25
2023/01/27 20:20:48;;;;;;;10.82;2.70;;;16.00;79.20;;;;;;10468422;28;20067;-27
2023/01/27 20:25:55;;;;;;;5.82;2.65;;;16.20;77.40;;;;;;10477150;28;20070;-25
2023/01/27 20:30:57;;;;;;;4.32;2.15;;;16.40;75.50;;;;;;10488909;28;20040;-27
2023/01/27 20:35:59;;;;;;;5.23;1.83;;;16.40;75.00;;;;;;10476662;28;20100;-25
2023/01/27 20:41:06;;;;;;;2.23;1.17;;;16.50;74.80;;;;;;10470617;28;20156;-25
2023/01/27 20:46:11;;;;;;;5.32;1.77;;;16.60;74.10;;;;;;10486493;28;21144;-29
2023/01/27 20:51:14;;;;;;;4.68;1.23;;;16.60;73.40;;;;;;10490428;28;20487;-26
2023/01/27 20:56:19;;;;;;;2.92;1.15;;;16.50;74.10;;;;;;10493773;28;20055;-27
2023/01/27 21:01:23;;;;;;;3.00;1.27;;;16.10;74.30;;;;;;10483205;28;20144;-26
2023/01/27 21:06:25;;;;;;;1.85;0.85;;;16.60;73.90;;;;;;10481537;28;20570;-27
2023/01/27 21:11:28;;;;;;;2.53;1.30;;;16.40;74.50;;;;;;10492281;28;20143;-25
2023/01/27 21:16:30;;;;;;;4.93;1.92;;;16.40;74.40;;;;;;10495365;28;20091;-26
2023/01/27 21:21:32;;;;;;;8.13;4.43;;;16.50;74.20;;;;;;10497580;28;20056;-26
2023/01/27 21:26:35;;;;;;;11.40;5.70;;;16.30;74.70;;;;;;10475616;28;20556;-24
2023/01/27 21:31:39;;;;;;;15.20;7.40;;;16.30;74.70;;;;;;10479685;28;20052;-26
2023/01/27 21:36:40;;;;;;;18.67;8.63;;;16.40;73.90;;;;;;10474907;28;20110;-25
2023/01/27 21:47:04;;;;;;;23.08;9.98;;;16.10;76.30;;;;;;10485770;28;20052;-25
2023/01/27 21:52:06;;;;;;;24.38;10.90;;;16.30;74.50;;;;;;10476555;28;20127;-26
2023/01/27 21:57:09;;;;;;;27.80;13.00;;;16.10;76.10;;;;;;10490973;28;20408;-26
2023/01/27 22:02:12;;;;;;;20.70;10.73;;;16.20;75.70;;;;;;10476302;28;20053;-27
2023/01/27 22:07:15;;;;;;;26.25;11.63;;;16.20;75.50;;;;;;10475792;28;20497;-25
2023/01/27 22:12:21;;;;;;;27.25;12.23;;;16.00;76.00;;;;;;10488165;28;20049;-25
2023/01/27 22:17:22;;;;;;;22.80;10.80;;;15.90;77.20;;;;;;10491858;28;20076;-26
2023/01/27 22:22:24;;;;;;;30.73;15.30;;;15.90;76.90;;;;;;10499871;28;20560;-26
2023/01/27 22:27:27;;;;;;;32.07;13.97;;;15.90;76.70;;;;;;10476815;28;20044;-25
2023/01/27 22:32:29;;;;;;;30.48;13.02;;;16.00;76.00;;;;;;10466436;28;20164;-26
2023/01/27 22:37:33;;;;;;;29.20;14.50;;;16.00;75.60;;;;;;10487695;28;20088;-26
2023/01/27 22:42:38;;;;;;;27.52;13.23;;;15.90;76.30;;;;;;10481719;28;20508;-27
2023/01/27 22:47:40;;;;;;;30.58;14.38;;;16.00;75.90;;;;;;10467493;28;20066;-26
2023/01/27 22:52:42;;;;;;;35.30;15.00;;;16.00;75.30;;;;;;10482701;28;20401;-25
2023/01/27 22:57:47;;;;;;;32.00;15.13;;;15.90;75.70;;;;;;10470991;28;20145;-25
2023/01/27 23:02:49;;;;;;;30.42;13.95;;;15.90;75.50;;;;;;10478857;28;20048;-26
2023/01/27 23:07:51;;;;;;;31.07;15.17;;;16.00;75.10;;;;;;10480660;28;20458;-25
2023/01/27 23:12:54;;;;;;;34.73;15.33;;;16.10;73.90;;;;;;10484263;28;20102;-25
2023/01/27 23:17:56;;;;;;;26.88;13.18;;;16.00;74.30;;;;;;10478869;28;20056;-24
2023/01/27 23:22:58;;;;;;;25.33;13.23;;;16.10;73.70;;;;;;10493335;28;20090;-26
2023/01/27 23:28:01;;;;;;;25.33;12.07;;;16.00;73.80;;;;;;10482499;28;20131;-26
2023/01/27 23:33:03;;;;;;;25.75;12.90;;;16.10;73.50;;;;;;10469264;28;20068;-25
2023/01/27 23:38:05;;;;;;;26.85;13.65;;;16.20;73.30;;;;;;10486177;28;20441;-26
2023/01/27 23:43:09;;;;;;;24.53;12.60;;;16.10;73.50;;;;;;10472498;28;20132;-26
2023/01/27 23:48:11;;;;;;;24.02;12.13;;;16.10;73.30;;;;;;10485867;28;20136;-26
2023/01/27 23:53:14;;;;;;;22.67;11.20;;;16.10;73.00;;;;;;10478414;28;20068;-25
2023/01/27 23:58:17;;;;;;;;;;;16.10;73.00;;;;;;10474042;28;20071;-25
